Time;durP1;ratioP1;P1;durP2;ratioP2;P2;SDS_P1;SDS_P2;PMS_P1;PMS_P2;Temp;Humidity;BMP_temperature;BMP_pressure;BME280_temperature;BME280_humidity;BME280_pressure;Samples;Min_cycle;Max_cycle;Signal;HPM_P1;HPM_P2
2023/09/02 07:35:43;;;;;;;4.25;3.95;;;;;;;;;;6285759;22;20022;-87
2023/09/02 20:00:24;;;;;;;5.45;4.85;;;;;;;;;;6334522;22;20052;-80
2023/09/02 20:02:49;;;;;;;5.43;4.57;;;;;;;;;;6360004;22;20429;-79
2023/09/02 20:05:15;;;;;;;8.43;5.93;;;;;;;;;;6339738;22;20005;-80
2023/09/02 20:07:41;;;;;;;6.80;5.20;;;;;;;;;;6340245;22;20007;-81
2023/09/02 20:10:10;;;;;;;6.68;4.82;;;;;;;;;;6339755;22;20037;-83
2023/09/02 20:12:35;;;;;;;6.95;5.80;;;;;;;;;;6312213;22;20007;-80
2023/09/02 20:15:01;;;;;;;6.07;4.95;;;;;;;;;;6339504;22;20139;-80
2023/09/02 20:17:26;;;;;;;7.85;5.13;;;;;;;;;;6339644;22;20049;-80
2023/09/02 20:19:52;;;;;;;6.15;5.03;;;;;;;;;;6339768;22;20443;-82
2023/09/02 20:22:17;;;;;;;8.63;5.03;;;;;;;;;;6339531;22;20298;-81
2023/09/02 20:24:42;;;;;;;6.30;4.90;;;;;;;;;;6340082;22;20042;-80
2023/09/02 20:27:08;;;;;;;8.18;5.03;;;;;;;;;;6339552;22;19995;-80
2023/09/02 20:29:33;;;;;;;7.13;5.38;;;;;;;;;;6339609;22;20002;-82
2023/09/02 20:31:59;;;;;;;7.03;5.40;;;;;;;;;;6339504;22;20030;-80
2023/09/02 20:34:25;;;;;;;7.75;4.97;;;;;;;;;;6339493;22;20068;-80
2023/09/02 20:36:51;;;;;;;6.32;4.93;;;;;;;;;;6339535;22;20006;-80
2023/09/02 20:39:17;;;;;;;5.75;5.15;;;;;;;;;;6339718;22;20413;-83
2023/09/02 20:41:43;;;;;;;7.47;5.03;;;;;;;;;;6311725;22;20059;-81
2023/09/02 20:44:09;;;;;;;5.30;4.55;;;;;;;;;;6339291;22;20005;-80
2023/09/02 20:46:35;;;;;;;8.05;5.72;;;;;;;;;;6339507;22;20132;-80
2023/09/02 20:49:01;;;;;;;7.80;4.95;;;;;;;;;;6339522;22;20053;-81
2023/09/02 20:51:27;;;;;;;8.63;5.35;;;;;;;;;;6339527;22;19999;-81
2023/09/02 20:53:53;;;;;;;6.30;4.78;;;;;;;;;;6339193;22;19999;-80
2023/09/02 20:56:18;;;;;;;7.93;5.10;;;;;;;;;;6339829;22;20033;-80
2023/09/02 20:58:44;;;;;;;6.35;5.40;;;;;;;;;;6339572;22;20325;-80
2023/09/02 21:01:09;;;;;;;7.25;4.72;;;;;;;;;;6339094;22;20082;-80
2023/09/02 21:03:35;;;;;;;8.25;5.38;;;;;;;;;;6339120;22;20030;-80
2023/09/02 21:06:02;;;;;;;6.75;5.05;;;;;;;;;;6339351;22;20429;-79
2023/09/02 21:08:28;;;;;;;6.63;4.88;;;;;;;;;;6339482;22;20006;-81
2023/09/02 21:11:10;;;;;;;7.45;4.85;;;;;;;;;;6339415;22;20006;-82
2023/09/02 21:13:37;;;;;;;7.45;4.78;;;;;;;;;;6339120;22;20007;-80
2023/09/02 21:16:02;;;;;;;5.90;5.30;;;;;;;;;;6339185;22;20022;-80
2023/09/02 21:18:28;;;;;;;6.15;5.18;;;;;;;;;;6339906;22;20005;-79
2023/09/02 21:20:53;;;;;;;5.63;5.10;;;;;;;;;;6339357;22;20003;-81
2023/09/02 21:23:19;;;;;;;7.88;5.05;;;;;;;;;;6339283;22;20048;-80
2023/09/02 21:25:44;;;;;;;6.32;5.45;;;;;;;;;;6339492;22;20325;-80
2023/09/02 21:28:10;;;;;;;7.85;5.68;;;;;;;;;;6339138;22;20458;-78
2023/09/02 21:30:39;;;;;;;5.97;5.20;;;;;;;;;;6339104;22;20333;-76
2023/09/02 21:33:05;;;;;;;8.77;5.22;;;;;;;;;;6339275;22;20014;-75
2023/09/02 21:35:36;;;;;;;7.82;4.70;;;;;;;;;;6339927;22;20002;-77
2023/09/02 21:38:02;;;;;;;6.10;5.18;;;;;;;;;;6339548;22;20053;-76
2023/09/02 21:40:27;;;;;;;8.93;4.97;;;;;;;;;;6339140;22;20414;-76
2023/09/02 21:42:53;;;;;;;8.07;5.25;;;;;;;;;;6339217;22;20002;-76
2023/09/02 21:45:18;;;;;;;6.97;4.90;;;;;;;;;;6339321;22;20057;-78
